Αναφορές Αεροδρομίων

 

KSJC - San Jose, California, USA
Distance from station: ΒΑ 14km
Ενημερώθηκε: 23/01/2020 03:53
Μερικώς νεφελώδης
Μερικώς νεφελώδης
 Ανεμος από ΒΒΔ
Ανεμος: ΒΒΔ 7 km/h
Θερμοκρασία: 14°C
Σημείο Δρόσου: 9°C
Υγρασία: 72%
Βαρόμετρο: 1023.4 hPa
Clouds: Μερικώς νεφελώδης
Visibility: 16 km
Cloud details: Few Clouds 457 m
Μερικώς νεφελώδης 4877 m
2020/01/23 01:53 KSJC 230153Z 34004KT 10SM FEW015 SCT160 14/09 A3022 RMK AO2 SLP234 T01390094 $
KNUQ - Moffett Nas/Mtn, California, USA
Distance from station: Β 14km
Ενημερώθηκε: 21/11/2019 18:56
NOT Current

 
Βαρόμετρο: 1011.2 hPa
2019/11/21 16:56 KNUQ 211656Z AUTO A2986 RMK AO2 SLP116 PWINO $
 
KPAO - Palo Alto, California, USA
Distance from station: ΒΒΔ 23km
Ενημερώθηκε: 23/01/2020 03:47
Few Clouds
Few Clouds
 Ανεμος από ΔΒΔ
Ανεμος: ΔΒΔ 7 km/h
Θερμοκρασία: 12°C
Σημείο Δρόσου: 10°C
Υγρασία: 88%
Βαρόμετρο: 1023.7 hPa
Clouds: Few Clouds
Visibility: 16 km
Cloud details: Few Clouds 610 m
2020/01/23 01:47 KPAO 230147Z 30004KT 10SM FEW020 12/10 A3023
KRHV - San Jose/Reid, California, USA
Distance from station: ΑΒΑ 19km
Ενημερώθηκε: 23/01/2020 03:47
Few Clouds
Few Clouds
 Ανεμος από Β
Ανεμος: Β 9 km/h
Θερμοκρασία: 14°C
Σημείο Δρόσου: 10°C
Υγρασία: 77%
Βαρόμετρο: 1023.7 hPa
Clouds: Few Clouds
Visibility: 16 km
Cloud details: Few Clouds 4877 m
2020/01/23 01:47 KRHV 230147Z 35005KT 10SM FEW160 14/10 A3023
 
KOAK - Oakland, California, USA
Distance from station: ΒΒΔ 50km
Ενημερώθηκε: 23/01/2020 03:53
Few Clouds
Few Clouds
 Ανεμος από ΒΒΔ
Ανεμος: ΒΒΔ 7 km/h
Θερμοκρασία: 13°C
Σημείο Δρόσου: 8°C
Υγρασία: 72%
Βαρόμετρο: 1023.7 hPa
Clouds: Few Clouds
Visibility: 16 km
Cloud details: Few Clouds 549 m
Few Clouds 6096 m
2020/01/23 01:53 KOAK 230153Z 34004KT 10SM FEW018 FEW200 13/08 A3023 RMK AO2 SLP237 T01330083
KSQL - San Carlos Airpo, California, USA
Distance from station: ΒΔ 34km
Ενημερώθηκε: 23/01/2020 03:47
Αίθριος
Αίθριος
 Ανεμος από varies
Ανεμος: varies 6 km/h
Θερμοκρασία: 14°C
Σημείο Δρόσου: 10°C
Υγρασία: 77%
Βαρόμετρο: 1023.7 hPa
Clouds: Αίθριος
Visibility: 16 km
2020/01/23 01:47 KSQL 230147Z VRB03KT 10SM SKC 14/10 A3023
 
KSFO - San Francisco, California, USA
Distance from station: ΒΔ 49km
Ενημερώθηκε: 23/01/2020 03:56
Μερικώς νεφελώδης
Μερικώς νεφελώδης
 Ανεμος από ΔΒΔ
Ανεμος: ΔΒΔ 17 km/h
Θερμοκρασία: 13°C
Σημείο Δρόσου: 9°C
Υγρασία: 77%
Βαρόμετρο: 1023.7 hPa
Clouds: Μερικώς νεφελώδης
Visibility: 16 km
Cloud details: Μερικώς νεφελώδης 6096 m
2020/01/23 01:56 KSFO 230156Z 29009KT 10SM SCT200 13/09 A3023 RMK AO2 SLP236 T01280089
KE16 - San Martin, California, USA
Distance from station: ΑΝΑ 43km
Ενημερώθηκε: 14/11/2019 11:35
NOT Current
Συννεφιά
Συννεφιά
 Ανεμος από ΝΑ
Ανεμος: ΝΑ 11 km/h
Θερμοκρασία: 12°C
Σημείο Δρόσου: 10°C
Υγρασία: 88%
Βαρόμετρο: 1017.6 hPa
Clouds: Συννεφιά
Visibility: 16 km
Cloud details: Συννεφιά 427 m
2019/11/14 09:35 KE16 140935Z AUTO 13006KT 10SM OVC014 12/10 A3005 RMK AO2
 
KWVI - Watsonville, California, USA
Distance from station: ΝΝΑ 44km
Ενημερώθηκε: 23/01/2020 03:53
Αίθριος
Αίθριος
 Ανεμος από ΒΔ
Ανεμος: ΒΔ 6 km/h
Θερμοκρασία: 13°C
Σημείο Δρόσου: 11°C
Υγρασία: 88%
Βαρόμετρο: 1023.4 hPa
Clouds: Αίθριος
Visibility: 16 km
2020/01/23 01:53 KWVI 230153Z AUTO 32003KT 10SM CLR 13/11 A3022 RMK AO2 SLP233 T01330106
KHAF - Half Moon Bay, California, USA
Distance from station: ΔΒΔ 50km
Ενημερώθηκε: 23/01/2020 04:15
Mist, Few clouds
Mist, Few clouds
 Ανεμος από calm
Ανεμος: Απνοια
Θερμοκρασία: 10°C
Σημείο Δρόσου: 9°C
Υγρασία: 94%
Βαρόμετρο: 1024 hPa
Περίληψη: Mist
Clouds: Few Clouds
Visibility: 8 km
Cloud details: Few Clouds 122 m
2020/01/23 02:15 KHAF 230215Z AUTO 00000KT 5SM BR FEW004 10/09 A3024 RMK AO2
 
KHWD - Hayward, California, USA
Distance from station: Β 44km
Ενημερώθηκε: 23/01/2020 03:54
Αίθριος
Αίθριος
 Ανεμος από ΔΒΔ
Ανεμος: ΔΒΔ 6 km/h
Θερμοκρασία: 13°C
Σημείο Δρόσου: 8°C
Υγρασία: 72%
Βαρόμετρο: 1023.7 hPa
Clouds: Αίθριος
Visibility: 16 km
2020/01/23 01:54 KHWD 230154Z 30003KT 10SM CLR 13/08 A3023 RMK AO2 SLP245 T01280083
KLVK - Livermore, California, USA
Distance from station: ΒΒΑ 51km
Ενημερώθηκε: 23/01/2020 04:09
Μερικώς νεφελώδης
Μερικώς νεφελώδης
 Ανεμος από ΑΒΑ
Ανεμος: ΑΒΑ 13 km/h
Θερμοκρασία: 12°C
Σημείο Δρόσου: 9°C
Υγρασία: 82%
Βαρόμετρο: 1023.7 hPa
Clouds: Μερικώς νεφελώδης
Visibility: 16 km
Cloud details: Μερικώς νεφελώδης 823 m
2020/01/23 02:09 KLVK 230209Z 07007KT 10SM SCT027 12/09 A3023 RMK AO2 T01220094